Time;durP1;ratioP1;P1;durP2;ratioP2;P2;SDS_P1;SDS_P2;PMS_P1;PMS_P2;Temp;Humidity;BMP_temperature;BMP_pressure;BME280_temperature;BME280_humidity;BME280_pressure;Samples;Min_cycle;Max_cycle;Signal;HPM_P1;HPM_P2
2022/05/17 15:33:25;;;;;;;5.68;1.85;;;;;;;28.71;27.05;96386.91;2082210;27;1494418;-62
2022/05/17 15:34:26;;;;;;;12.70;2.30;;;;;;;28.48;27.88;96381.56;2105227;28;20063;-65
2022/05/17 15:35:29;;;;;;;6.25;2.00;;;;;;;27.14;28.43;96382.94;2116541;28;20429;-63
2022/05/17 15:36:33;;;;;;;4.68;2.30;;;;;;;27.06;28.66;96374.94;2111064;28;20071;-63
2022/05/17 15:37:36;;;;;;;5.10;2.03;;;;;;;27.79;27.40;96376.72;2106990;28;20464;-61
2022/05/17 15:38:38;;;;;;;4.18;1.95;;;;;;;27.07;28.22;96381.94;2116451;28;20499;-60
2022/05/17 15:39:39;;;;;;;5.25;1.80;;;;;;;27.37;27.45;96379.63;2117454;28;20043;-62
2022/05/17 15:40:40;;;;;;;5.65;1.80;;;;;;;27.73;27.09;96379.25;2103354;28;20040;-61
2022/05/17 15:41:42;;;;;;;4.32;2.13;;;;;;;29.70;26.06;96376.34;2106975;28;20070;-63
2022/05/17 15:42:43;;;;;;;9.02;2.10;;;;;;;30.66;25.00;96379.91;2112475;28;20051;-62
2022/05/17 15:43:45;;;;;;;8.00;2.00;;;;;;;30.13;24.77;96380.09;2111327;28;20047;-61
2022/05/17 15:44:46;;;;;;;4.10;1.95;;;;;;;30.71;25.37;96382.88;2103819;28;20052;-61
2022/05/17 15:45:48;;;;;;;4.60;1.70;;;;;;;31.02;23.28;96379.13;2112052;28;20051;-62
2022/05/17 15:53:36;;;;;;;6.72;2.38;;;;;;;29.08;27.26;96364.00;2103407;28;20544;-61
2022/05/17 15:54:38;;;;;;;5.72;2.45;;;;;;;28.99;27.78;96366.69;2106737;28;20047;-62
2022/05/17 15:55:39;;;;;;;5.30;2.30;;;;;;;29.39;26.04;96371.94;2112561;28;20517;-63
2022/05/17 15:56:43;;;;;;;6.35;2.30;;;;;;;29.93;26.17;96369.06;2112097;28;20054;-61
2022/05/17 15:57:44;;;;;;;14.23;3.10;;;;;;;30.09;27.55;96370.75;2104450;28;20052;-61
2022/05/17 15:58:46;;;;;;;5.10;2.63;;;;;;;30.94;26.86;96369.34;2103771;28;20055;-61
2022/05/17 15:59:47;;;;;;;7.78;2.35;;;;;;;31.76;25.17;96362.63;2103567;28;20051;-61
2022/05/17 16:00:48;;;;;;;3.40;2.17;;;;;;;31.61;25.46;96368.09;2092728;28;20071;-61
2022/05/17 16:01:53;;;;;;;4.00;2.58;;;;;;;30.41;28.52;96377.56;2097876;28;20048;-62
2022/05/17 16:02:54;;;;;;;5.57;2.05;;;;;;;30.52;28.09;96369.03;2102535;28;20116;-60
2022/05/17 16:04:54;;;;;;;5.40;2.35;;;;;;;31.00;27.43;96371.25;2104291;28;20090;-64
2022/05/17 16:05:19;;;;;;;7.07;2.58;;;;;;;30.58;27.15;96370.16;2110504;28;20355;-63
2022/05/17 16:06:21;;;;;;;4.60;2.25;;;;;;;30.72;27.59;96371.16;2105520;28;20039;-63
2022/05/17 16:08:43;;;;;;;4.22;2.20;;;;;;;29.07;28.26;96368.50;2106201;28;20525;-63
2022/05/17 16:09:45;;;;;;;6.25;2.58;;;;;;;30.32;28.94;96374.19;2094967;28;20088;-62
2022/05/17 16:10:47;;;;;;;5.68;2.65;;;;;;;30.41;28.03;96376.75;2094163;28;20048;-63
2022/05/17 16:12:49;;;;;;;4.32;2.22;;;;;;;29.96;28.73;96376.75;2103119;28;20075;-63
2022/05/17 16:13:51;;;;;;;5.05;2.53;;;;;;;30.88;26.17;96378.16;2103952;28;20418;-63
2022/05/17 16:14:52;;;;;;;4.82;2.45;;;;;;;30.81;25.34;96372.72;2106984;28;20518;-63
2022/05/17 16:15:53;;;;;;;4.78;2.45;;;;;;;31.37;24.95;96375.53;2093949;28;20044;-63
2022/05/17 16:16:55;;;;;;;3.78;2.22;;;;;;;30.46;25.75;96380.53;2095097;28;20044;-63
2022/05/17 16:17:59;;;;;;;5.00;2.63;;;;;;;28.80;27.93;96373.34;2095215;28;20056;-63
2022/05/17 16:19:01;;;;;;;5.65;2.58;;;;;;;29.26;27.71;96374.38;2071116;28;20050;-63
2022/05/17 16:20:05;;;;;;;4.43;2.25;;;;;;;29.47;28.34;96374.53;2087314;28;20443;-62
2022/05/17 16:21:06;;;;;;;6.03;2.47;;;;;;;29.78;28.64;96371.75;2108972;28;20398;-62
2022/05/17 16:22:09;;;;;;;4.53;2.55;;;;;;;29.12;28.29;96371.47;2111246;28;20058;-63
2022/05/17 16:23:10;;;;;;;5.07;2.35;;;;;;;28.20;29.34;96367.78;2094912;28;20057;-63
2022/05/17 16:24:12;;;;;;;7.15;2.83;;;;;;;27.77;29.64;96370.72;2095473;28;20059;-62
2022/05/17 16:25:15;;;;;;;4.50;2.22;;;;;;;29.30;28.21;96368.50;2103807;28;20052;-62
2022/05/17 16:26:16;;;;;;;5.00;2.13;;;;;;;30.18;26.00;96366.09;2103371;28;20067;-63
2022/05/17 16:27:17;;;;;;;3.75;2.08;;;;;;;30.64;25.68;96376.63;2103003;28;20044;-63
2022/05/17 16:28:19;;;;;;;5.90;2.38;;;;;;;30.52;25.52;96368.22;2103294;28;20051;-63
2022/05/17 16:29:20;;;;;;;3.40;2.35;;;;;;;30.01;26.65;96363.63;2111249;28;20048;-63
2022/05/17 16:30:24;;;;;;;6.53;2.70;;;;;;;29.81;27.98;96362.53;2111754;28;20450;-63
2022/05/17 16:31:25;;;;;;;5.10;2.17;;;;;;;29.36;27.10;96366.94;2098605;28;20047;-64
2022/05/17 16:32:26;;;;;;;4.03;2.20;;;;;;;28.85;27.15;96366.66;2081001;28;20057;-62
2022/05/17 16:33:28;;;;;;;5.30;2.60;;;;;;;28.17;28.88;96371.63;2083046;28;20124;-62
2022/05/17 16:34:32;;;;;;;6.57;2.67;;;;;;;28.21;29.35;96356.94;2088174;28;20435;-62
2022/05/17 16:35:37;;;;;;;5.03;2.58;;;;;;;27.98;28.89;96356.03;2084244;28;20046;-61
2022/05/17 16:36:38;;;;;;;3.92;2.17;;;;;;;27.69;30.14;96360.06;2094421;28;20052;-63
2022/05/17 16:37:39;;;;;;;4.13;2.00;;;;;;;27.09;30.83;96355.94;2085996;28;20053;-62
2022/05/17 16:38:41;;;;;;;5.72;2.03;;;;;;;27.52;29.83;96353.13;2092929;28;20032;-62
2022/05/17 16:39:42;;;;;;;2.67;1.85;;;;;;;27.39;30.52;96354.47;2109812;28;20059;-61
2022/05/17 16:40:44;;;;;;;4.10;2.28;;;;;;;26.80;30.00;96359.09;2106619;28;20051;-63
2022/05/17 16:41:45;;;;;;;3.63;2.10;;;;;;;26.61;30.17;96355.72;2102517;28;20048;-63
2022/05/17 16:42:47;;;;;;;3.28;2.20;;;;;;;27.08;29.44;96356.97;2085835;28;20581;-63
2022/05/17 16:43:49;;;;;;;2.88;1.70;;;;;;;27.22;29.33;96353.66;2094197;28;20154;-62
2022/05/17 16:44:50;;;;;;;5.35;2.10;;;;;;;26.90;29.82;96354.44;2097341;28;20052;-63
2022/05/17 16:45:52;;;;;;;3.95;1.70;;;;;;;27.17;29.76;96352.47;2098173;28;20032;-62
2022/05/17 16:46:54;;;;;;;5.35;1.90;;;;;;;27.44;29.04;96353.97;2106251;28;20425;-63
2022/05/17 16:47:55;;;;;;;2.95;1.90;;;;;;;27.60;28.45;96358.44;2106722;28;20063;-63
2022/05/17 16:48:58;;;;;;;4.60;1.80;;;;;;;27.35;28.86;96358.47;2105297;28;20114;-63
2022/05/17 16:50:03;;;;;;;6.90;2.30;;;;;;;26.53;30.94;96358.38;2106129;28;20044;-62
2022/05/17 16:51:05;;;;;;;5.60;2.03;;;;;;;26.80;30.12;96359.91;2106364;28;20055;-64
2022/05/17 16:52:08;;;;;;;3.38;1.95;;;;;;;27.10;29.40;96357.59;2105377;28;20509;-63
2022/05/17 16:53:10;;;;;;;3.47;2.10;;;;;;;27.04;29.15;96361.78;2097111;28;20499;-63
2022/05/17 16:54:13;;;;;;;2.38;1.95;;;;;;;27.61;28.77;96362.75;2089733;28;20410;-62
2022/05/17 16:55:14;;;;;;;4.95;1.95;;;;;;;27.88;27.04;96358.88;2106491;28;20477;-63
2022/05/17 16:56:15;;;;;;;8.25;2.13;;;;;;;28.18;27.74;96365.31;2088640;28;20056;-62
2022/05/17 16:57:17;;;;;;;3.47;1.90;;;;;;;28.13;27.12;96365.81;2087548;28;20041;-62
2022/05/17 16:58:18;;;;;;;6.57;2.13;;;;;;;28.72;27.72;96365.38;2097374;28;20284;-63
2022/05/17 16:59:19;;;;;;;4.72;2.03;;;;;;;28.12;27.54;96365.97;2097226;28;20048;-63
2022/05/17 17:00:21;;;;;;;4.78;2.08;;;;;;;27.56;29.40;96362.44;2089065;28;20053;-63
2022/05/17 17:01:22;;;;;;;5.15;2.33;;;;;;;26.30;30.86;96368.78;2080611;28;20140;-63
2022/05/17 17:02:28;;;;;;;2.78;2.08;;;;;;;25.86;30.25;96365.41;2080969;28;20041;-62
2022/05/17 17:03:29;;;;;;;4.13;2.00;;;;;;;26.08;30.70;96367.50;2089209;28;20049;-63
2022/05/17 17:04:30;;;;;;;3.97;2.15;;;;;;;26.16;31.10;96367.53;2098050;28;20045;-63
2022/05/17 17:05:34;;;;;;;4.28;2.10;;;;;;;24.48;32.97;96369.38;2089275;28;20442;-62
2022/05/17 17:06:36;;;;;;;4.28;2.00;;;;;;;24.35;34.00;96368.88;2090155;28;20063;-62
2022/05/17 17:07:37;;;;;;;3.22;2.00;;;;;;;24.31;33.32;96365.69;2097664;28;20063;-63
2022/05/17 17:08:38;;;;;;;3.80;2.25;;;;;;;24.51;35.16;96362.94;2097361;28;20086;-62
2022/05/17 17:09:39;;;;;;;4.22;2.00;;;;;;;24.53;34.51;96361.81;2097131;28;20410;-62
2022/05/17 17:10:42;;;;;;;3.55;2.30;;;;;;;24.29;33.47;96369.47;2105676;28;20055;-62
2022/05/17 17:11:43;;;;;;;5.45;2.25;;;;;;;24.17;33.34;96356.41;2096671;28;20136;-62
2022/05/17 17:12:44;;;;;;;2.67;1.92;;;;;;;24.24;34.94;96364.59;2088934;28;20052;-63
2022/05/17 17:13:46;;;;;;;4.38;2.08;;;;;;;24.47;33.70;96361.59;2088791;28;20060;-62
2022/05/17 17:14:47;;;;;;;5.93;2.15;;;;;;;24.07;35.38;96368.06;2089139;28;20040;-62
2022/05/17 17:15:49;;;;;;;5.30;2.15;;;;;;;24.18;34.57;96373.16;2080980;28;20045;-62
2022/05/17 17:16:50;;;;;;;3.13;1.77;;;;;;;24.09;35.25;96371.41;2088869;28;20049;-63
2022/05/17 17:17:53;;;;;;;2.50;1.80;;;;;;;24.14;35.23;96377.13;2073638;28;20053;-63
2022/05/17 17:18:55;;;;;;;3.47;2.10;;;;;;;24.06;35.89;96375.19;2088900;28;20452;-63
2022/05/17 17:19:57;;;;;;;5.03;1.92;;;;;;;23.75;36.54;96371.94;2096839;28;20522;-63
2022/05/17 17:21:00;;;;;;;4.30;2.00;;;;;;;23.52;36.56;96374.94;2097051;28;20040;-62
2022/05/17 17:22:01;;;;;;;6.00;2.67;;;;;;;22.76;37.89;96377.47;2080596;28;20049;-62
2022/05/17 17:23:03;;;;;;;3.55;2.03;;;;;;;22.76;38.19;96382.75;2073400;28;20058;-62
2022/05/17 17:24:05;;;;;;;4.57;2.47;;;;;;;22.53;37.57;96379.50;2097416;28;20056;-63
2022/05/17 17:25:08;;;;;;;5.53;2.38;;;;;;;22.40;38.71;96378.94;2105244;28;20146;-62
2022/05/17 17:26:09;;;;;;;4.72;2.15;;;;;;;22.39;38.98;96378.09;2105489;28;20071;-63
2022/05/17 17:27:12;;;;;;;3.55;2.10;;;;;;;22.61;38.87;96377.03;2097722;28;20052;-61
2022/05/17 17:28:15;;;;;;;4.50;2.20;;;;;;;22.53;40.73;96383.97;2089321;28;20466;-61
2022/05/17 17:29:16;;;;;;;4.10;2.42;;;;;;;22.52;40.01;96382.31;2081927;28;20052;-63
2022/05/17 17:30:18;;;;;;;7.28;2.38;;;;;;;22.50;39.82;96382.44;2081346;28;20534;-64
2022/05/17 17:31:19;;;;;;;6.78;2.67;;;;;;;22.35;40.51;96375.88;2080572;28;20052;-64
2022/05/17 17:37:46;;;;;;;6.15;3.25;;;;;;;22.05;41.26;96380.19;2097548;28;20063;-63
2022/05/17 17:38:48;;;;;;;5.18;2.80;;;;;;;22.04;41.50;96378.53;2080945;28;20045;-62
2022/05/17 17:39:49;;;;;;;5.05;2.70;;;;;;;21.87;41.48;96382.66;2065118;28;20050;-63
2022/05/17 17:40:50;;;;;;;5.15;2.20;;;;;;;21.88;41.92;96379.03;2080829;28;20041;-63
2022/05/17 17:41:55;;;;;;;7.10;2.35;;;;;;;21.95;40.95;96382.81;2080436;28;20416;-62
2022/05/17 17:42:57;;;;;;;4.65;2.33;;;;;;;22.01;40.95;96384.09;2073495;28;20049;-63
2022/05/17 17:43:59;;;;;;;5.80;2.55;;;;;;;21.94;41.50;96377.66;2089372;28;20049;-62
2022/05/17 17:45:00;;;;;;;5.25;2.50;;;;;;;21.88;41.11;96380.84;2098408;28;20055;-61
2022/05/17 17:46:05;;;;;;;6.20;2.55;;;;;;;21.92;40.03;96382.22;2089578;28;20045;-62
2022/05/17 17:47:06;;;;;;;5.63;2.13;;;;;;;21.96;40.65;96373.91;2057400;28;20047;-63
2022/05/17 17:48:08;;;;;;;9.20;2.92;;;;;;;22.01;40.42;96389.38;2072988;28;20121;-62
2022/05/17 17:49:09;;;;;;;7.85;2.90;;;;;;;21.97;39.85;96386.19;2089009;28;20391;-63
2022/05/17 17:50:10;;;;;;;4.07;2.22;;;;;;;21.69;40.88;96382.41;2080383;28;20049;-62
2022/05/17 17:51:12;;;;;;;5.57;2.85;;;;;;;21.64;41.12;96389.91;2081028;28;20049;-61
2022/05/17 17:52:13;;;;;;;4.95;2.53;;;;;;;21.59;41.49;96389.47;2080760;28;20049;-63
2022/05/17 17:53:14;;;;;;;4.38;2.20;;;;;;;21.58;41.42;96387.78;2088244;28;20076;-62
2022/05/17 17:54:16;;;;;;;4.10;2.42;;;;;;;21.56;41.25;96395.00;2097945;28;20040;-63
2022/05/17 17:55:18;;;;;;;6.80;2.33;;;;;;;21.56;41.41;96395.00;2089040;28;20071;-62
2022/05/17 17:56:20;;;;;;;7.85;2.60;;;;;;;21.45;42.81;96390.63;2088694;28;20041;-61
2022/05/17 17:57:22;;;;;;;9.60;2.80;;;;;;;21.40;41.31;96392.81;2096678;28;20036;-63
2022/05/17 17:58:24;;;;;;;3.85;2.45;;;;;;;21.28;41.12;96394.69;2097369;28;20481;-62
2022/05/17 17:59:25;;;;;;;8.45;2.60;;;;;;;21.33;41.21;96399.56;2097070;28;20649;-61
2022/05/17 18:00:27;;;;;;;4.25;2.45;;;;;;;21.50;41.18;96400.81;2096535;28;20048;-61
2022/05/17 18:01:29;;;;;;;5.85;3.13;;;;;;;21.58;41.16;96398.38;2104532;28;20063;-62
2022/05/17 18:02:30;;;;;;;3.22;2.20;;;;;;;21.65;40.56;96404.81;2089083;28;20056;-63
2022/05/17 18:03:33;;;;;;;4.30;2.10;;;;;;;21.61;40.47;96403.38;2088208;28;20100;-62
2022/05/17 18:04:35;;;;;;;5.30;2.47;;;;;;;21.58;40.56;96403.66;2089028;28;20064;-61
2022/05/17 18:05:39;;;;;;;3.92;2.70;;;;;;;21.70;40.90;96407.88;2096736;28;20055;-62
2022/05/17 18:06:42;;;;;;;4.15;2.05;;;;;;;21.75;41.64;96405.69;2098000;28;20056;-62
2022/05/17 18:07:43;;;;;;;5.10;2.60;;;;;;;21.70;41.57;96410.50;2097631;28;20063;-62
2022/05/17 18:08:44;;;;;;;4.80;2.60;;;;;;;21.64;42.22;96412.84;2097570;28;20052;-62
2022/05/17 18:09:46;;;;;;;5.22;2.65;;;;;;;21.58;42.41;96412.41;2088548;28;20053;-63
2022/05/17 18:10:47;;;;;;;5.85;2.55;;;;;;;21.52;42.52;96414.75;2088942;28;20052;-62
2022/05/17 18:11:48;;;;;;;3.83;2.40;;;;;;;21.53;42.74;96419.88;2097247;28;20048;-63
2022/05/17 18:12:50;;;;;;;5.93;2.83;;;;;;;21.33;44.46;96420.69;2096777;28;20048;-62
2022/05/17 18:13:51;;;;;;;3.35;2.10;;;;;;;21.39;43.48;96416.75;2088139;28;20057;-63
2022/05/17 18:14:54;;;;;;;5.53;2.80;;;;;;;21.24;43.87;96419.66;2088578;28;20081;-62
2022/05/17 18:15:55;;;;;;;5.82;2.55;;;;;;;21.19;43.58;96413.09;2081008;28;20088;-63
2022/05/17 18:16:57;;;;;;;6.65;2.50;;;;;;;21.13;43.80;96417.06;2072565;28;20046;-62
2022/05/17 18:17:59;;;;;;;4.32;2.65;;;;;;;21.12;43.30;96412.78;2080742;28;20050;-60
2022/05/17 18:19:00;;;;;;;5.43;2.58;;;;;;;21.12;43.34;96416.25;2080170;28;20045;-62
2022/05/17 18:20:03;;;;;;;7.20;2.80;;;;;;;21.01;43.20;96415.44;2072278;28;20468;-61
2022/05/17 18:21:04;;;;;;;3.85;2.63;;;;;;;21.09;43.56;96413.00;2088869;28;20072;-62
2022/05/17 18:22:06;;;;;;;7.28;2.72;;;;;;;21.06;44.47;96416.75;2097085;28;20056;-62
2022/05/17 18:23:08;;;;;;;4.68;2.28;;;;;;;21.13;43.85;96419.72;2097534;28;20514;-62
2022/05/17 18:24:10;;;;;;;5.38;2.80;;;;;;;21.01;44.58;96420.72;2097148;28;20044;-63
2022/05/17 18:25:14;;;;;;;8.40;2.72;;;;;;;20.96;44.77;96422.94;2097428;28;20044;-62
2022/05/17 18:26:17;;;;;;;13.52;3.00;;;;;;;20.87;44.61;96427.97;2097671;28;20044;-62
2022/05/17 18:27:20;;;;;;;7.05;3.10;;;;;;;20.78;45.13;96430.53;2097852;28;20040;-62
2022/05/17 18:28:24;;;;;;;5.97;2.70;;;;;;;20.77;44.99;96427.06;2088988;28;20061;-62
2022/05/17 18:29:30;;;;;;;4.30;2.42;;;;;;;20.78;45.43;96427.91;2081983;28;20044;-62
2022/05/17 18:30:31;;;;;;;5.90;2.70;;;;;;;20.78;45.59;96419.97;2088376;28;20041;-62
2022/05/17 18:31:36;;;;;;;5.30;2.78;;;;;;;20.75;45.30;96425.50;2073404;28;20045;-61
2022/05/17 18:32:43;;;;;;;5.00;2.63;;;;;;;20.71;45.54;96419.63;2087325;28;20033;-61
2022/05/17 18:33:44;;;;;;;5.13;2.75;;;;;;;20.72;45.33;96420.50;2095138;28;20048;-61
2022/05/17 18:34:54;;;;;;;4.80;2.40;;;;;;;20.66;45.63;96416.53;2103661;28;20545;-62
2022/05/17 18:35:57;;;;;;;8.40;2.75;;;;;;;20.63;45.34;96422.06;2102700;28;20397;-62
2022/05/17 18:36:59;;;;;;;5.47;2.95;;;;;;;20.61;45.67;96413.41;2100677;28;20050;-63
2022/05/17 18:38:02;;;;;;;5.30;2.35;;;;;;;20.57;45.91;96422.56;2097103;28;20048;-62
2022/05/17 18:39:05;;;;;;;5.05;2.65;;;;;;;20.48;46.24;96426.75;2096860;28;20060;-61
2022/05/17 18:40:07;;;;;;;4.55;2.42;;;;;;;20.44;46.35;96423.50;2097016;28;20044;-62
2022/05/17 18:41:08;;;;;;;6.95;2.45;;;;;;;20.33;47.11;96426.16;2088673;28;20060;-62
2022/05/17 18:42:09;;;;;;;7.47;2.45;;;;;;;20.25;46.97;96429.41;2096476;28;20048;-63
2022/05/17 18:43:12;;;;;;;5.40;2.88;;;;;;;20.19;47.11;96426.41;2096235;28;20047;-60
2022/05/17 18:44:13;;;;;;;4.22;2.70;;;;;;;20.16;47.37;96424.03;2105073;28;20057;-62
2022/05/17 18:45:15;;;;;;;6.63;2.70;;;;;;;20.08;47.65;96435.19;2105878;28;20063;-62
2022/05/17 18:46:16;;;;;;;6.53;2.58;;;;;;;19.98;47.84;96421.88;2104901;28;20071;-62
2022/05/17 18:47:17;;;;;;;5.38;3.00;;;;;;;19.95;48.95;96430.00;2096870;28;20057;-62
2022/05/17 18:48:19;;;;;;;8.90;2.70;;;;;;;19.86;49.08;96428.09;2104826;28;20098;-62
2022/05/17 18:49:20;;;;;;;7.43;2.80;;;;;;;19.79;49.41;96434.81;2104881;28;20036;-62
2022/05/17 18:50:22;;;;;;;7.53;2.92;;;;;;;19.67;49.59;96427.84;2095831;28;20040;-61
2022/05/17 18:51:23;;;;;;;4.50;2.80;;;;;;;19.66;48.05;96431.41;2096548;28;20548;-61
2022/05/17 18:52:29;;;;;;;5.70;3.00;;;;;;;19.56;49.51;96432.09;2088884;28;20526;-62
2022/05/17 18:53:30;;;;;;;4.85;3.00;;;;;;;19.51;50.07;96429.00;2089473;28;20121;-61
2022/05/17 18:54:34;;;;;;;5.60;2.60;;;;;;;19.45;50.31;96428.59;2089146;28;20040;-61
2022/05/17 18:55:37;;;;;;;9.00;3.38;;;;;;;19.39;50.29;96437.81;2088554;28;20041;-61
2022/05/17 18:56:38;;;;;;;6.28;2.88;;;;;;;19.29;50.62;96429.75;2097311;28;20052;-61
2022/05/17 18:57:40;;;;;;;6.68;3.20;;;;;;;19.24;51.30;96428.44;2097848;28;20059;-61
2022/05/17 18:58:42;;;;;;;5.43;2.50;;;;;;;19.18;51.02;96427.94;2097563;28;20056;-62
2022/05/17 18:59:43;;;;;;;4.10;2.53;;;;;;;19.15;51.27;96432.59;2097535;28;20524;-62
2022/05/17 19:00:47;;;;;;;9.10;3.40;;;;;;;19.07;51.41;96430.53;2087956;28;20041;-62
2022/05/17 19:01:48;;;;;;;3.70;2.67;;;;;;;19.05;51.17;96431.59;2087647;28;20045;-62
2022/05/17 19:02:50;;;;;;;7.55;2.85;;;;;;;19.08;50.67;96431.38;2087380;28;20049;-61
2022/05/17 19:03:54;;;;;;;4.93;2.85;;;;;;;19.03;50.75;96430.88;2088762;28;20049;-61
2022/05/17 19:04:55;;;;;;;5.75;2.88;;;;;;;18.98;51.05;96427.72;2087841;28;20388;-62
2022/05/17 19:05:58;;;;;;;6.00;3.10;;;;;;;18.88;51.46;96438.13;2079830;28;20041;-61
2022/05/17 19:07:00;;;;;;;7.22;2.97;;;;;;;18.76;52.10;96436.38;2088566;28;20399;-62
2022/05/17 19:14:31;;;;;;;5.03;3.00;;;;;;;18.08;53.86;96451.69;2096398;28;20416;-61
2022/05/17 19:15:34;;;;;;;7.32;2.90;;;;;;;18.00;53.91;96459.25;2080731;28;20436;-62
2022/05/17 19:16:40;;;;;;;4.63;2.80;;;;;;;17.94;54.80;96452.66;2080043;28;20045;-62
2022/05/17 19:17:41;;;;;;;6.57;3.10;;;;;;;17.88;54.19;96453.06;2072416;28;20407;-61
2022/05/17 19:18:46;;;;;;;6.47;3.22;;;;;;;17.80;55.34;96458.00;2079806;28;20049;-61
2022/05/17 19:19:48;;;;;;;6.78;2.90;;;;;;;17.71;56.38;96458.59;2097201;28;20052;-63
2022/05/17 19:20:49;;;;;;;5.60;3.30;;;;;;;17.65;55.58;96457.25;2097031;28;20049;-62
2022/05/17 19:21:52;;;;;;;5.07;3.05;;;;;;;17.60;55.75;96457.56;2087573;28;20057;-61
2022/05/17 19:22:56;;;;;;;5.50;2.88;;;;;;;17.57;56.64;96464.81;2088357;28;20514;-63
2022/05/17 19:23:58;;;;;;;7.75;3.15;;;;;;;17.49;56.52;96462.69;2096747;28;20060;-62
2022/05/17 19:24:59;;;;;;;4.35;2.97;;;;;;;17.47;56.61;96469.00;2096097;28;20044;-61
2022/05/17 19:26:00;;;;;;;4.90;2.78;;;;;;;17.38;57.11;96467.81;2097674;28;20056;-61
2022/05/17 19:27:02;;;;;;;6.65;3.40;;;;;;;17.35;56.58;96471.50;2098648;28;20588;-62
2022/05/17 19:28:05;;;;;;;5.55;3.17;;;;;;;17.30;57.24;96476.22;2104744;28;20115;-62
2022/05/17 19:29:06;;;;;;;8.00;3.17;;;;;;;17.26;57.34;96474.72;2096604;28;20056;-62
2022/05/17 19:30:08;;;;;;;7.20;3.05;;;;;;;17.23;57.13;96477.56;2088629;28;20074;-62
2022/05/17 19:31:13;;;;;;;8.15;3.65;;;;;;;17.19;57.08;96479.53;2104845;28;20051;-62
2022/05/17 19:32:24;;;;;;;6.03;2.80;;;;;;;17.14;57.35;96476.38;2105700;28;20173;-62
2022/05/17 19:33:25;;;;;;;5.55;3.15;;;;;;;17.10;58.25;96479.31;2095575;28;20051;-61
2022/05/17 19:34:28;;;;;;;4.80;3.10;;;;;;;17.05;57.92;96476.13;2088289;28;20438;-61
2022/05/17 19:35:32;;;;;;;4.97;2.75;;;;;;;17.01;58.03;96480.75;2104668;28;20043;-61
2022/05/17 19:39:25;;;;;;;6.60;3.20;;;;;;;16.85;58.75;96485.31;2105541;28;20051;-61
2022/05/17 19:40:27;;;;;;;6.68;3.33;;;;;;;16.81;58.69;96479.41;2105082;28;20043;-62
2022/05/17 19:41:28;;;;;;;5.78;3.17;;;;;;;16.77;59.33;96480.56;2096594;28;20430;-61
2022/05/17 19:42:30;;;;;;;6.22;2.78;;;;;;;16.72;59.58;96482.59;2096231;28;20040;-62
2022/05/17 19:43:31;;;;;;;4.57;3.30;;;;;;;16.66;59.79;96481.22;2104240;28;20040;-62
2022/05/17 19:44:33;;;;;;;5.28;3.45;;;;;;;16.63;60.17;96476.16;2096495;28;20044;-62
2022/05/17 19:45:35;;;;;;;6.35;3.03;;;;;;;16.61;59.67;96490.31;2096524;28;20052;-61
2022/05/17 19:46:36;;;;;;;6.03;3.65;;;;;;;16.59;60.28;96489.56;2104846;28;20040;-61
2022/05/17 19:47:44;;;;;;;7.20;3.63;;;;;;;16.54;60.55;96492.47;2104750;28;20036;-62
2022/05/17 19:48:45;;;;;;;5.47;3.45;;;;;;;16.50;60.90;96489.19;2096703;28;20053;-62
2022/05/17 19:49:50;;;;;;;5.93;3.72;;;;;;;16.48;60.24;96483.22;2088177;28;20060;-62
2022/05/17 19:50:52;;;;;;;8.43;3.85;;;;;;;16.44;60.58;96494.84;2104839;28;20538;-62
2022/05/17 19:51:54;;;;;;;8.20;3.92;;;;;;;16.44;60.20;96483.50;2105110;28;20055;-62
2022/05/17 19:52:55;;;;;;;8.02;3.90;;;;;;;16.39;60.45;96489.03;2095994;28;20064;-63
2022/05/17 19:53:56;;;;;;;5.90;3.83;;;;;;;16.38;60.84;96487.34;2096236;28;20049;-61
2022/05/17 19:54:57;;;;;;;6.53;3.17;;;;;;;16.37;60.52;96488.28;2105469;28;20051;-62
2022/05/17 19:56:00;;;;;;;6.90;3.80;;;;;;;16.34;60.35;96488.47;2087929;28;20041;-62
2022/05/17 19:57:01;;;;;;;5.63;3.67;;;;;;;16.31;60.68;96483.44;2087033;23;20070;-63
2022/05/17 19:58:02;;;;;;;6.68;3.75;;;;;;;16.31;60.71;96486.06;2059745;28;20055;-63
2022/05/17 19:59:03;;;;;;;5.78;4.07;;;;;;;16.28;61.24;96486.25;2064471;28;20046;-64
2022/05/17 20:00:07;;;;;;;7.18;3.90;;;;;;;16.26;61.54;96488.13;2056167;28;20050;-61
2022/05/17 20:01:13;;;;;;;7.80;3.65;;;;;;;16.22;62.00;96495.31;2050024;28;20401;-64
2022/05/17 20:02:14;;;;;;;8.85;3.83;;;;;;;16.19;62.15;96485.03;2056439;28;20046;-63
2022/05/17 20:03:16;;;;;;;8.65;3.90;;;;;;;16.13;62.83;96493.28;2049340;28;20059;-62
2022/05/17 20:04:17;;;;;;;8.48;4.28;;;;;;;16.09;62.67;96491.75;2064848;28;20420;-61
2022/05/17 20:05:18;;;;;;;7.18;3.97;;;;;;;16.04;62.83;96489.44;2072762;28;20049;-62
2022/05/17 20:06:22;;;;;;;5.95;4.05;;;;;;;16.01;63.03;96494.88;2048967;29;20055;-61
2022/05/17 20:07:23;;;;;;;6.38;3.90;;;;;;;16.00;63.42;96498.41;2042189;28;20048;-63
2022/05/17 20:08:25;;;;;;;6.50;4.13;;;;;;;15.98;63.27;96488.97;2065186;28;20042;-62
2022/05/17 20:09:26;;;;;;;11.05;4.47;;;;;;;15.96;63.11;96490.81;2064541;28;20046;-61
2022/05/17 20:10:27;;;;;;;10.00;4.50;;;;;;;15.92;63.36;96489.34;2065017;28;20063;-62
2022/05/17 20:11:28;;;;;;;8.35;4.05;;;;;;;15.89;63.44;96490.38;2065125;28;20054;-61
2022/05/17 20:12:30;;;;;;;7.68;4.05;;;;;;;15.86;63.14;96495.78;2065443;28;20038;-62
2022/05/17 20:13:31;;;;;;;6.57;3.90;;;;;;;15.80;63.28;96493.56;2063740;28;20050;-62
2022/05/17 20:14:33;;;;;;;6.65;3.90;;;;;;;15.79;62.97;96484.00;2048676;28;20043;-62
2022/05/17 20:15:34;;;;;;;9.10;4.20;;;;;;;15.76;63.22;96495.50;2041451;28;20274;-63
2022/05/17 20:16:35;;;;;;;8.40;3.60;;;;;;;15.72;63.30;96483.53;2056726;28;20050;-62
2022/05/17 20:17:36;;;;;;;6.22;3.60;;;;;;;15.70;63.11;96485.41;2057078;28;20053;-62
2022/05/17 20:18:37;;;;;;;5.95;4.00;;;;;;;15.67;63.90;96488.16;2057683;28;20047;-62
2022/05/17 20:19:39;;;;;;;7.43;4.03;;;;;;;15.69;64.03;96495.94;2057352;28;20058;-62
2022/05/17 20:20:41;;;;;;;5.93;3.45;;;;;;;15.65;63.77;96498.72;2057933;28;20063;-62
2022/05/17 20:21:43;;;;;;;7.20;4.10;;;;;;;15.65;64.05;96496.09;2057363;28;20054;-61
2022/05/17 20:22:44;;;;;;;8.18;3.90;;;;;;;15.63;64.47;96489.28;2065904;28;20552;-62
2022/05/17 20:23:46;;;;;;;6.53;4.20;;;;;;;15.65;64.34;96484.81;2066044;28;20076;-61
2022/05/17 20:24:47;;;;;;;5.72;3.92;;;;;;;15.63;65.02;96487.50;2058916;28;20061;-63
2022/05/17 20:25:48;;;;;;;7.00;3.85;;;;;;;15.61;64.91;96483.28;2065705;28;20046;-62
2022/05/17 20:26:50;;;;;;;8.75;3.72;;;;;;;15.59;64.48;96486.00;2057298;28;20057;-63
2022/05/17 20:27:51;;;;;;;8.02;4.28;;;;;;;15.57;65.06;96492.25;2058454;28;20557;-62
2022/05/17 20:28:54;;;;;;;6.95;3.80;;;;;;;15.54;65.04;96484.59;2066673;28;20053;-62
2022/05/17 20:29:55;;;;;;;9.77;4.15;;;;;;;15.57;64.86;96490.47;2065175;28;20069;-63
2022/05/17 20:31:01;;;;;;;10.27;3.97;;;;;;;15.56;65.50;96491.44;2064880;28;20054;-61
2022/05/17 20:32:04;;;;;;;4.88;3.90;;;;;;;15.55;65.27;96486.28;2066181;28;20042;-62
2022/05/17 20:33:05;;;;;;;7.78;4.20;;;;;;;15.50;65.71;96486.53;2065446;28;20065;-65
2022/05/17 20:34:06;;;;;;;11.50;4.40;;;;;;;15.48;65.67;96485.81;2050221;28;20047;-62
2022/05/17 20:35:08;;;;;;;10.40;4.05;;;;;;;15.46;65.84;96486.84;2058217;28;20039;-64
2022/05/17 20:36:09;;;;;;;6.40;4.30;;;;;;;15.45;65.48;96486.00;2073980;28;20045;-62
2022/05/17 20:37:13;;;;;;;7.75;4.28;;;;;;;15.42;65.34;96487.00;2065917;28;20444;-64
2022/05/17 20:38:14;;;;;;;7.45;4.55;;;;;;;15.38;66.20;96487.28;2065894;28;20053;-61
2022/05/17 20:39:18;;;;;;;7.38;4.30;;;;;;;15.39;66.39;96486.34;2057873;28;20051;-64
2022/05/17 20:40:20;;;;;;;7.97;4.57;;;;;;;15.40;65.70;96494.09;2058781;28;20051;-62
2022/05/17 20:41:22;;;;;;;7.72;4.13;;;;;;;15.41;66.13;96489.72;2057771;28;20058;-63
2022/05/17 20:42:31;;;;;;;7.40;4.68;;;;;;;15.40;66.02;96491.50;2057938;28;20050;-63
2022/05/17 20:43:33;;;;;;;6.57;4.25;;;;;;;15.41;65.78;96487.09;2065626;28;20517;-61
2022/05/17 20:44:34;;;;;;;8.93;5.03;;;;;;;15.42;66.22;96489.63;2065460;28;20046;-63
2022/05/17 20:45:35;;;;;;;7.07;4.35;;;;;;;15.47;65.99;96488.50;2058189;28;20050;-64
2022/05/17 20:49:19;;;;;;;10.13;4.50;;;;;;;15.35;66.04;96490.06;2063037;28;20352;-63
2022/05/17 20:50:21;;;;;;;8.25;4.55;;;;;;;15.32;66.42;96490.25;2065948;28;20042;-62
2022/05/17 20:51:22;;;;;;;6.07;4.25;;;;;;;15.31;66.03;96491.16;2066215;28;20440;-62
2022/05/17 20:52:23;;;;;;;10.77;4.85;;;;;;;15.27;65.88;96487.91;2065461;28;20531;-62